Latest Weather Observations for Esperance

IDW60801

Issued at 2:35 pm WST Tuesday 21 October 2014 (issued every 30 minutes, with the page automatically refreshed every 10 minutes)

About weather observations | Map of weather stations | Latest weather observations for WA | Other Formats
Station Details ID: 009789 Name: ESPERANCE Lat: -33.83 Lon: 121.89 Height: 25.0 m
Data from the previous 72 hours. | See also: Recent months at Esperance
Date/Time
WST
Temp
°C
App
Temp
°C
Dew
Point
Rel
Hum
%
Delta-T
°C
Wind Press
QNH
hPa
Press
MSL
hPa
Rain
since 9 am
mm
Dir
 
Spd
km/h
Gust
km/h
Spd
kts
Gust
kts
21/02:30pm 17.2 14.5 12.9 76 2.4 S 19 30 10 16 1022.7 1022.6 -
21/02:00pm 18.1 15.3 13.1 72 2.8 S 20 28 11 15 1022.5 1022.4 -
21/01:30pm 18.3 16.0 13.1 71 2.9 S 17 24 9 13 1022.6 1022.5 -
21/01:00pm 19.1 16.1 12.7 66 3.6 SW 20 32 11 17 1022.7 1022.6 0.4
21/12:30pm 18.9 15.7 13.2 69 3.2 WSW 22 28 12 15 1022.8 1022.7 0.4
21/12:00pm 19.4 16.9 14.2 72 3.0 WSW 20 32 11 17 1022.7 1022.6 0.2
21/11:30am 18.1 16.2 14.3 78 2.2 SW 17 24 9 13 1022.7 1022.6 0.2
21/11:00am 17.1 14.9 14.5 85 1.5 WSW 19 32 10 17 1022.7 1022.6 0.2
21/10:30am 17.7 15.5 14.9 84 1.6 WSW 20 32 11 17 1022.8 1022.7 0.2
21/10:00am 17.8 16.3 15.2 85 1.5 WSW 17 24 9 13 1022.6 1022.5 0.2
21/09:30am 17.4 17.3 16.0 91 0.8 W 11 19 6 10 1022.4 1022.3 0.2
21/09:07am 16.3 15.6 15.4 94 0.5 W 13 17 7 9 1022.3 1022.2 0.0
21/09:00am 16.3 16.1 15.6 96 0.4 W 11 19 6 10 1022.3 1022.2 6.4
21/08:30am 15.7 14.9 15.2 97 0.3 WNW 13 20 7 11 1022.0 1021.9 6.2
21/08:00am 15.4 13.4 14.9 97 0.3 WNW 19 24 10 13 1021.6 1021.5 5.6
21/07:56am 15.5 13.4 14.8 96 0.4 NW 19 24 10 13 1021.5 1021.4 5.4
21/07:49am 15.9 14.6 14.9 94 0.6 NW 15 22 8 12 1021.4 1021.3 5.2
21/07:30am 16.4 15.7 15.4 94 0.6 WNW 13 17 7 9 1021.1 1021.0 5.2
21/07:00am 15.6 15.6 15.1 97 0.3 WNW 9 13 5 7 1021.0 1020.9 5.2
21/06:30am 15.6 15.5 14.9 96 0.4 W 9 15 5 8 1020.3 1020.2 5.2
21/06:00am 15.2 15.0 14.7 97 0.3 W 9 13 5 7 1019.8 1019.7 5.2
21/05:30am 15.2 14.5 14.3 94 0.5 SW 11 17 6 9 1019.5 1019.4 5.2
21/05:28am 15.1 14.4 14.4 96 0.4 SW 11 17 6 9 1019.5 1019.4 5.2
21/05:21am 15.2 14.5 14.3 94 0.5 WSW 11 17 6 9 1019.5 1019.4 5.2
21/05:04am 15.1 14.4 14.4 96 0.4 SW 11 17 6 9 1019.2 1019.1 5.0
21/05:01am 15.2 14.5 14.3 94 0.5 SW 11 17 6 9 1019.2 1019.1 5.0
21/05:00am 15.2 14.5 14.3 94 0.5 SW 11 17 6 9 1019.1 1019.0 5.0
21/04:43am 15.3 14.2 14.4 94 0.5 SW 13 19 7 10 1018.9 1018.8 5.0
21/04:30am 15.5 15.2 14.4 93 0.6 WSW 9 17 5 9 1018.8 1018.7 5.0
21/04:06am 15.5 15.3 14.8 96 0.4 WSW 9 17 5 9 1018.4 1018.3 4.8
21/04:00am 15.4 14.8 14.7 96 0.4 WSW 11 15 6 8 1018.3 1018.2 4.8
21/03:39am 15.2 14.0 14.1 93 0.6 WSW 13 19 7 10 1018.1 1018.0 4.2
21/03:30am 15.5 13.4 13.7 89 1.0 WSW 17 22 9 12 1018.1 1018.0 4.2
21/03:00am 15.2 14.6 14.5 96 0.4 WSW 11 17 6 9 1017.7 1017.6 4.0
21/02:45am 15.1 14.0 14.4 96 0.4 WSW 13 20 7 11 1017.6 1017.5 4.0
21/02:30am 15.3 13.5 14.4 94 0.5 WSW 17 26 9 14 1017.7 1017.6 4.0
21/02:20am 15.6 14.2 14.5 93 0.6 WSW 15 24 8 13 1017.6 1017.5 3.8
21/02:09am 15.7 15.2 14.8 94 0.5 WSW 11 22 6 12 1017.5 1017.4 3.8
21/02:00am 15.5 15.0 15.0 97 0.3 W 11 19 6 10 1017.4 1017.3 3.8
21/01:47am 15.5 14.7 15.0 97 0.3 W 13 17 7 9 1017.5 1017.4 3.6
21/01:30am 15.5 14.6 14.8 96 0.4 WNW 13 19 7 10 1017.3 1017.2 3.4
21/01:00am 15.4 14.9 14.9 97 0.3 WNW 11 15 6 8 1017.2 1017.1 3.4
21/12:49am 15.4 14.9 14.9 97 0.3 W 11 19 6 10 1017.2 1017.1 3.4
21/12:30am 15.4 14.4 14.7 96 0.4 W 13 19 7 10 1017.1 1017.0 3.4
21/12:05am 15.6 14.7 14.9 96 0.4 W 13 19 7 10 1017.1 1017.0 3.2
21/12:02am 15.5 14.7 15.0 97 0.3 W 13 20 7 11 1017.0 1016.9 3.2
21/12:00am 15.5 14.7 15.0 97 0.3 WNW 13 20 7 11 1017.0 1016.9 3.2
 
Date/Time
WST
Temp
°C
App
Temp
°C
Dew
Point
Rel
Hum
%
Delta-T
°C
Wind Press
QNH
hPa
Press
MSL
hPa
Rain
since 9 am
mm
Dir
 
Spd
km/h
Gust
km/h
Spd
kts
Gust
kts
20/11:51pm 15.6 14.0 14.9 96 0.4 WNW 17 24 9 13 1017.0 1016.9 3.2
20/11:30pm 15.6 13.6 14.9 96 0.4 WNW 19 24 10 13 1017.1 1017.0 3.2
20/11:03pm 15.5 13.4 14.6 94 0.5 WNW 19 24 10 13 1017.0 1016.9 3.2
20/11:00pm 15.5 13.2 14.6 94 0.5 WNW 20 30 11 16 1017.1 1017.0 3.2
20/10:30pm 15.7 14.1 15.0 96 0.4 WNW 17 24 9 13 1017.2 1017.1 3.2
20/10:24pm 15.7 14.2 15.2 97 0.3 WNW 17 26 9 14 1017.3 1017.2 3.2
20/10:20pm 15.8 13.9 15.1 96 0.4 WNW 19 26 10 14 1017.3 1017.2 3.2
20/10:16pm 15.8 13.9 15.1 96 0.4 WNW 19 26 10 14 1017.2 1017.1 3.2
20/10:04pm 16.0 14.1 15.1 94 0.5 W 19 28 10 15 1017.3 1017.2 3.2
20/10:00pm 16.1 14.2 15.1 94 0.6 W 19 28 10 15 1017.4 1017.3 3.0
20/09:49pm 16.1 14.2 15.1 94 0.6 WNW 19 28 10 15 1017.3 1017.2 3.0
20/09:36pm 16.0 14.4 15.1 94 0.5 WNW 17 28 9 15 1017.3 1017.2 3.0
20/09:30pm 16.1 14.2 15.2 94 0.5 WNW 19 24 10 13 1017.3 1017.2 3.0
20/09:00pm 16.4 14.3 15.2 93 0.7 W 20 30 11 16 1017.5 1017.4 3.0
20/08:53pm 16.3 14.4 15.3 94 0.6 WNW 19 30 10 16 1017.6 1017.5 3.0
20/08:46pm 16.1 14.2 15.2 94 0.5 WNW 19 28 10 15 1017.6 1017.5 3.0
20/08:32pm 16.1 14.6 15.2 94 0.5 WNW 17 26 9 14 1017.6 1017.5 2.8
20/08:30pm 16.2 14.7 15.2 94 0.6 WNW 17 24 9 13 1017.5 1017.4 2.6
20/08:29pm 16.3 14.7 15.1 93 0.7 WNW 17 24 9 13 1017.6 1017.5 2.6
20/08:00pm 16.2 15.0 15.0 93 0.7 WNW 15 20 8 11 1017.0 1016.9 2.4
20/07:30pm 16.6 15.5 15.2 91 0.8 WNW 15 19 8 10 1016.5 1016.4 2.4
20/07:00pm 16.7 16.0 15.3 91 0.8 NW 13 17 7 9 1015.8 1015.7 2.4
20/06:30pm 16.9 17.6 16.1 95 0.5 NW 7 9 4 5 1015.5 1015.4 2.4
20/06:00pm 17.1 18.2 15.7 91 0.8 N 4 9 2 5 1015.0 1015.0 2.4
20/05:30pm 17.8 19.7 15.8 88 1.2 CALM 0 0 0 0 1014.3 1014.3 2.4
20/05:00pm 17.2 17.6 15.3 88 1.1 ENE 7 9 4 5 1013.9 1013.9 2.4
20/04:30pm 17.1 16.6 14.9 87 1.3 ESE 11 15 6 8 1013.4 1013.4 2.2
20/04:00pm 17.7 17.5 15.8 89 1.1 SSE 11 15 6 8 1013.2 1013.2 2.2
20/03:42pm 17.1 17.6 15.6 91 0.9 W 7 13 4 7 1013.2 1013.2 2.0
20/03:30pm 18.1 14.9 14.3 78 2.2 NNW 24 33 13 18 1012.9 1012.9 0.6
20/03:00pm 20.7 17.6 11.5 55 5.1 NW 19 24 10 13 1012.5 1012.5 0.2
20/02:30pm 19.6 14.8 11.6 60 4.4 NW 28 39 15 21 1012.6 1012.6 0.2
20/02:00pm 20.8 16.5 10.7 52 5.5 NNW 24 35 13 19 1012.4 1012.4 0.2
20/01:30pm 21.5 16.8 10.8 50 5.9 NNW 26 39 14 21 1012.4 1012.4 0.2
20/01:00pm 20.4 15.7 10.7 53 5.3 NW 26 37 14 20 1012.6 1012.6 0.2
20/12:30pm 22.6 18.2 10.4 46 6.7 NW 24 35 13 19 1012.4 1012.4 0.2
20/12:00pm 21.3 16.8 10.0 48 6.1 NW 24 35 13 19 1012.4 1012.4 0.2
20/11:30am 20.9 17.3 10.7 52 5.6 NW 20 35 11 19 1012.5 1012.5 0.2
20/11:00am 21.0 17.2 11.0 52 5.5 WNW 22 32 12 17 1012.6 1012.6 0.2
20/10:30am 21.1 17.5 12.0 56 5.1 NW 22 32 12 17 1012.6 1012.6 0.2
20/10:00am 20.2 16.5 12.6 61 4.3 NW 24 37 13 20 1012.9 1012.9 0.0
20/09:30am 19.4 15.5 12.0 62 4.1 NW 24 32 13 17 1013.0 1013.0 0.0
20/09:00am 19.3 16.5 13.3 68 3.4 NW 20 28 11 15 1013.3 1013.3 42.0
20/08:30am 18.2 15.5 13.4 73 2.7 NW 20 26 11 14 1013.4 1013.4 42.0
20/08:00am 17.0 14.1 12.9 77 2.3 N 20 30 11 16 1013.5 1013.5 42.0
20/07:30am 16.0 13.2 12.7 81 1.8 N 19 26 10 14 1013.5 1013.5 42.0
20/07:00am 15.0 12.1 12.8 87 1.2 N 20 30 11 16 1013.6 1013.6 42.0
20/06:47am 14.7 12.3 12.7 88 1.1 N 17 28 9 15 1013.8 1013.8 42.0
20/06:30am 14.4 12.4 12.8 90 0.9 N 15 24 8 13 1013.6 1013.6 42.0
20/06:00am 13.4 11.3 12.5 94 0.5 NNE 15 20 8 11 1013.4 1013.4 42.0
20/05:30am 12.7 11.3 12.1 96 0.3 NE 11 15 6 8 1012.9 1012.9 42.0
20/05:00am 12.9 11.5 12.2 95 0.4 N 11 17 6 9 1013.1 1013.1 42.0
20/04:30am 13.1 11.3 12.2 94 0.5 NNE 13 19 7 10 1012.7 1012.7 42.0
20/04:00am 13.2 11.8 12.3 94 0.5 N 11 15 6 8 1012.4 1012.4 42.0
20/03:30am 13.4 11.7 12.3 93 0.6 NNE 13 20 7 11 1012.6 1012.6 42.0
20/03:00am 13.5 11.0 12.4 93 0.6 NNE 17 24 9 13 1012.3 1012.3 42.0
20/02:30am 13.7 11.2 12.4 92 0.7 NNE 17 20 9 11 1012.0 1012.0 42.0
20/02:00am 13.7 12.0 12.6 93 0.6 NNE 13 20 7 11 1012.1 1012.1 42.0
20/01:30am 14.2 11.8 12.7 91 0.8 N 17 24 9 13 1012.2 1012.2 42.0
20/01:00am 14.5 11.8 12.9 90 0.9 N 19 26 10 14 1011.9 1011.9 42.0
20/12:30am 14.8 11.2 13.0 89 1.0 N 24 35 13 19 1011.9 1011.9 42.0
20/12:00am 14.9 11.6 12.9 88 1.1 N 22 32 12 17 1011.9 1011.9 42.0
 
Date/Time
WST
Temp
°C
App
Temp
°C
Dew
Point
Rel
Hum
%
Delta-T
°C
Wind Press
QNH
hPa
Press
MSL
hPa
Rain
since 9 am
mm
Dir
 
Spd
km/h
Gust
km/h
Spd
kts
Gust
kts
19/11:30pm 14.7 11.9 13.1 90 0.9 N 20 26 11 14 1012.3 1012.3 42.0
19/11:00pm 14.6 12.4 13.3 92 0.7 N 17 24 9 13 1012.2 1012.2 42.0
19/10:30pm 14.8 13.4 13.4 91 0.8 N 13 17 7 9 1012.7 1012.7 42.0
19/10:00pm 14.9 13.2 13.6 92 0.7 N 15 19 8 10 1012.7 1012.7 42.0
19/09:30pm 14.9 13.6 13.6 92 0.7 N 13 17 7 9 1012.9 1012.9 42.0
19/09:00pm 14.9 14.4 13.8 93 0.6 N 9 13 5 7 1012.7 1012.7 42.0
19/08:30pm 15.1 13.6 14.2 94 0.5 ENE 15 26 8 14 1011.9 1011.9 42.0
19/08:00pm 15.2 13.9 14.9 98 0.2 NE 15 20 8 11 1012.9 1012.9 42.0
19/07:43pm 15.3 14.5 15.0 98 0.2 ENE 13 20 7 11 1013.0 1013.0 42.0
19/07:30pm 15.5 14.4 15.2 98 0.2 E 15 24 8 13 1012.5 1012.5 42.0
19/07:14pm 15.7 11.4 15.4 98 0.2 ESE 32 52 17 28 1011.0 1011.0 42.0
19/07:00pm 15.6 10.7 15.4 99 0.1 SE 35 50 19 27 1009.8 1009.8 42.0
19/06:55pm 15.5 11.9 15.3 99 0.1 SE 28 50 15 27 1009.8 1009.8 42.0
19/06:53pm 15.5 13.0 15.2 98 0.2 SE 22 41 12 22 1010.6 1010.6 42.0
19/06:52pm 15.5 13.4 15.2 98 0.2 SE 20 35 11 19 1011.1 1011.1 42.0
19/06:51pm 15.5 13.6 15.2 98 0.2 SE 19 33 10 18 1011.4 1011.4 42.0
19/06:30pm 15.3 15.1 14.8 97 0.3 NNE 9 15 5 8 1013.8 1013.8 41.2
19/06:00pm 15.4 15.4 15.1 98 0.2 N 9 15 5 8 1014.6 1014.6 38.2
19/05:30pm 15.8 14.2 15.1 96 0.4 NNW 17 24 9 13 1014.5 1014.5 34.2
19/05:20pm 16.1 14.3 15.4 96 0.4 NNW 19 24 10 13 1014.4 1014.4 32.8
19/05:00pm 16.0 15.0 15.5 97 0.3 WNW 15 20 8 11 1014.2 1014.2 29.6
19/04:30pm 16.0 15.8 15.7 98 0.2 N 11 15 6 8 1013.5 1013.5 26.0
19/04:00pm 16.1 14.6 15.2 94 0.5 NE 17 24 9 13 1012.3 1012.3 23.2
19/03:30pm 16.6 14.4 15.9 96 0.4 E 22 39 12 21 1011.1 1011.1 21.2
19/03:22pm 16.7 13.7 15.9 95 0.5 ENE 26 43 14 23 1011.1 1011.1 20.8
19/03:00pm 16.6 14.3 15.7 94 0.5 E 22 41 12 22 1010.7 1010.7 20.0
19/02:30pm 16.6 13.2 15.9 96 0.4 E 28 46 15 25 1010.5 1010.5 19.6
19/02:00pm 16.6 14.1 16.1 97 0.3 E 24 43 13 23 1011.1 1011.1 16.8
19/01:30pm 16.7 15.9 16.2 97 0.3 E 15 26 8 14 1012.8 1012.8 14.0
19/01:17pm 16.8 16.4 16.3 97 0.3 E 13 20 7 11 1013.5 1013.5 12.6
19/01:00pm 16.6 17.0 16.3 98 0.2 E 9 17 5 9 1013.5 1013.5 10.6
19/12:36pm 16.6 15.4 16.1 97 0.3 E 17 26 9 14 1013.5 1013.5 7.6
19/12:30pm 16.6 15.0 15.9 96 0.4 ESE 19 28 10 15 1013.5 1013.5 7.2
19/12:00pm 16.1 13.4 15.6 97 0.3 ESE 24 35 13 19 1013.8 1013.8 7.0
19/11:30am 15.7 11.7 15.2 97 0.3 ESE 30 46 16 25 1014.4 1014.4 6.2
19/11:06am 15.7 10.8 15.2 97 0.3 ESE 35 54 19 29 1014.7 1014.7 6.0
19/11:00am 15.5 10.0 14.8 96 0.4 ESE 37 54 20 29 1014.6 1014.6 6.0
19/10:49am 15.4 9.6 14.9 97 0.3 ESE 39 54 21 29 1014.7 1014.7 5.2
19/10:30am 15.3 9.4 14.8 97 0.3 ESE 39 61 21 33 1014.9 1014.9 4.6
19/10:02am 15.1 9.9 14.6 97 0.3 ESE 35 54 19 29 1015.5 1015.4 3.4
19/10:00am 15.1 9.6 14.6 97 0.3 ESE 37 54 20 29 1015.3 1015.3 3.2
19/09:30am 14.8 8.4 14.3 97 0.3 ESE 41 59 22 32 1015.9 1015.8 0.8
19/09:18am 14.7 9.0 14.3 97 0.2 ESE 37 56 20 30 1016.3 1016.2 0.2
19/09:00am 14.6 9.3 14.2 97 0.2 ESE 35 52 19 28 1016.8 1016.7 7.2
19/08:30am 14.7 9.4 14.2 97 0.3 ESE 35 57 19 31 1017.2 1017.1 7.0
19/08:00am 14.4 8.5 13.7 96 0.4 ESE 37 56 20 30 1017.2 1017.1 6.6
19/07:48am 14.5 9.0 13.6 94 0.5 ESE 35 50 19 27 1017.2 1017.1 6.6
19/07:30am 14.8 8.8 13.4 91 0.8 ESE 37 56 20 30 1016.9 1016.8 6.6
19/07:00am 14.5 7.7 13.2 92 0.7 ESE 41 59 22 32 1016.3 1016.2 6.6
19/06:30am 14.6 7.3 12.8 89 1.0 ESE 43 61 23 33 1016.7 1016.6 6.6
19/06:17am 14.4 7.9 12.9 91 0.8 ESE 39 57 21 31 1016.4 1016.3 6.6
19/06:00am 14.2 6.9 12.7 91 0.8 ESE 43 59 23 32 1016.8 1016.7 6.6
19/05:52am 14.2 7.7 12.9 92 0.7 ESE 39 59 21 32 1016.7 1016.6 6.6
19/05:30am 14.3 7.0 12.8 91 0.8 ESE 43 63 23 34 1016.5 1016.4 6.6
19/05:25am 14.2 6.8 12.5 89 0.9 ESE 43 61 23 33 1016.3 1016.2 6.6
19/05:17am 14.1 7.6 12.8 92 0.7 ESE 39 59 21 32 1016.1 1016.0 6.6
19/05:13am 14.2 8.1 13.1 93 0.6 ESE 37 52 20 28 1016.6 1016.5 6.6
19/05:00am 14.1 7.2 12.8 92 0.7 ESE 41 59 22 32 1016.6 1016.5 6.6
19/04:32am 14.4 8.2 12.6 89 1.0 ESE 37 57 20 31 1016.7 1016.6 6.6
19/04:30am 14.4 8.2 12.6 89 1.0 ESE 37 54 20 29 1016.6 1016.5 6.6
19/04:00am 14.4 9.0 12.8 90 0.9 ESE 33 46 18 25 1018.0 1017.9 6.6
19/03:58am 14.4 8.6 12.6 89 1.0 ESE 35 46 19 25 1017.9 1017.8 6.6
19/03:40am 14.2 9.0 12.9 92 0.7 ESE 32 46 17 25 1017.8 1017.7 6.6
19/03:30am 14.4 8.9 12.6 89 1.0 ESE 33 50 18 27 1017.6 1017.5 6.6
19/03:23am 14.3 9.0 12.5 89 1.0 ESE 32 50 17 27 1017.8 1017.7 6.6
19/03:22am 14.3 9.0 12.5 89 1.0 ESE 32 46 17 25 1017.9 1017.8 6.6
19/03:20am 14.4 9.1 12.6 89 1.0 ESE 32 46 17 25 1018.0 1017.9 6.6
19/03:00am 14.3 8.8 12.3 88 1.1 ESE 33 44 18 24 1017.6 1017.5 6.6
19/02:30am 14.5 9.1 12.1 85 1.3 ESE 32 46 17 25 1017.1 1017.0 6.6
19/02:20am 14.5 9.1 12.1 85 1.3 ESE 32 46 17 25 1017.1 1017.0 6.6
19/02:12am 14.6 9.0 12.0 84 1.4 ESE 33 52 18 28 1017.3 1017.2 6.6
19/02:08am 14.5 8.4 11.9 84 1.4 ESE 35 52 19 28 1017.1 1017.0 6.6
19/02:05am 14.6 8.9 11.8 83 1.5 ESE 33 52 18 28 1017.1 1017.0 6.6
19/02:00am 14.5 9.1 12.1 85 1.3 SE 32 46 17 25 1017.1 1017.0 6.6
19/01:47am 14.5 9.1 12.3 87 1.2 SE 32 46 17 25 1016.9 1016.8 6.6
19/01:30am 15.2 9.4 11.5 78 2.0 SE 33 48 18 26 1017.7 1017.6 6.6
19/01:00am 15.3 9.5 11.4 77 2.1 SE 33 44 18 24 1018.0 1017.9 6.6
19/12:30am 15.2 9.4 11.5 78 2.0 SE 33 52 18 28 1018.4 1018.3 6.6
19/12:29am 15.2 9.3 11.3 77 2.1 SE 33 52 18 28 1018.3 1018.2 6.6
19/12:00am 15.3 10.4 11.4 77 2.1 SE 28 41 15 22 1018.4 1018.3 6.6
 
Date/Time
WST
Temp
°C
App
Temp
°C
Dew
Point
Rel
Hum
%
Delta-T
°C
Wind Press
QNH
hPa
Press
MSL
hPa
Rain
since 9 am
mm
Dir
 
Spd
km/h
Gust
km/h
Spd
kts
Gust
kts
18/11:30pm 15.4 10.2 11.7 78 2.0 SE 30 46 16 25 1018.0 1017.9 6.6
18/11:00pm 15.3 9.6 11.2 76 2.2 SE 32 46 17 25 1018.2 1018.1 6.6
18/10:30pm 15.3 10.4 11.2 76 2.2 SE 28 39 15 21 1018.6 1018.5 6.6
18/10:00pm 15.2 10.7 11.3 77 2.1 ESE 26 35 14 19 1018.8 1018.7 6.6
18/09:30pm 15.0 10.9 11.5 79 1.9 ESE 24 32 13 17 1019.1 1019.0 6.6
18/09:00pm 15.0 10.4 11.2 78 2.0 ESE 26 35 14 19 1019.2 1019.1 6.6
18/08:30pm 15.0 10.0 11.0 77 2.1 ESE 28 39 15 21 1018.4 1018.3 6.6
18/08:00pm 14.9 10.0 11.3 79 1.9 ESE 28 39 15 21 1017.9 1017.8 6.6
18/07:30pm 15.0 9.4 11.5 79 1.9 ESE 32 44 17 24 1017.2 1017.1 6.6
18/07:00pm 15.0 9.3 11.3 78 2.0 ESE 32 44 17 24 1016.8 1016.7 6.6
18/06:30pm 14.9 9.3 11.5 80 1.8 ESE 32 43 17 23 1017.0 1016.9 6.6
18/06:11pm 15.1 9.5 11.4 78 2.0 SE 32 50 17 27 1016.6 1016.5 6.6
18/06:00pm 15.1 9.3 11.6 79 1.9 SE 33 46 18 25 1016.4 1016.3 6.6
18/05:30pm 15.0 8.0 11.1 77 2.1 SE 39 56 21 30 1015.1 1015.1 6.6
18/05:13pm 15.1 8.5 11.2 77 2.1 SE 37 56 20 30 1014.8 1014.8 6.6
18/05:00pm 15.0 7.0 10.6 75 2.3 SE 43 57 23 31 1014.9 1014.9 6.6
18/04:40pm 14.9 8.2 10.9 77 2.1 SE 37 59 20 32 1015.7 1015.6 6.6
18/04:30pm 14.8 6.8 11.2 79 1.9 SE 44 54 24 29 1014.9 1014.9 6.6
18/04:00pm 14.7 6.4 11.5 81 1.7 SSE 46 65 25 35 1014.2 1014.2 6.6
18/03:30pm 14.9 5.8 11.3 79 1.9 SSE 50 67 27 36 1013.7 1013.7 6.6
18/03:00pm 14.8 6.3 12.0 83 1.5 SSE 48 69 26 37 1012.9 1012.9 6.6
18/02:43pm 14.6 4.8 11.6 82 1.6 SSE 54 80 29 43 1012.0 1012.0 6.6

Other Formats:

Comma delimited format used in spreadsheet applications
http://www.bom.gov.au/fwo/IDW60801/IDW60801.94638.axf

JavaScript Object Notation format (JSON) in row-major order
http://www.bom.gov.au/fwo/IDW60801/IDW60801.94638.json